createdAt,value
2023-03-14T00:00:02.718Z,1001.8
2023-03-14T00:01:02.521Z,1001.7
2023-03-14T00:02:02.312Z,1001.7
2023-03-14T00:03:02.429Z,1001.6
2023-03-14T00:04:02.302Z,1001.5
2023-03-14T00:05:02.161Z,1001.6
2023-03-14T00:06:02.050Z,1001.5
2023-03-14T00:07:01.964Z,1001.5
2023-03-14T00:08:01.989Z,1001.5
2023-03-14T00:09:01.907Z,1001.4
2023-03-14T00:10:02.021Z,1001.4
2023-03-14T00:11:01.859Z,1001.4
2023-03-14T00:12:01.889Z,1001.2
2023-03-14T00:13:01.761Z,1001.3
2023-03-14T00:14:02.818Z,1001.2
2023-03-14T00:15:02.697Z,1001.1
2023-03-14T00:16:02.941Z,1001.1
2023-03-14T00:17:02.718Z,1001
2023-03-14T00:18:02.807Z,1001.1
2023-03-14T00:19:02.872Z,1001.1
2023-03-14T00:20:02.738Z,1001
2023-03-14T00:21:02.618Z,1001
2023-03-14T00:22:02.660Z,1000.9
2023-03-14T00:23:02.509Z,1000.9
2023-03-14T00:24:02.542Z,1000.9
2023-03-14T00:25:02.456Z,1000.8
2023-03-14T00:26:02.513Z,1000.7
2023-03-14T00:27:02.463Z,1000.7
2023-03-14T00:28:02.311Z,1000.6
2023-03-14T00:29:02.359Z,1000.6
2023-03-14T00:30:02.303Z,1000.6
2023-03-14T00:31:02.267Z,1000.7
2023-03-14T00:32:02.420Z,1000.7
2023-03-14T00:33:02.477Z,1000.7
2023-03-14T00:34:02.418Z,1000.7
2023-03-14T00:35:02.251Z,1000.6
2023-03-14T00:36:02.523Z,1000.6
2023-03-14T00:37:02.462Z,1000.5
2023-03-14T00:38:02.327Z,1000.5
2023-03-14T00:39:02.435Z,1000.6
2023-03-14T00:40:02.351Z,1000.5
2023-03-14T00:41:02.203Z,1000.5
2023-03-14T00:42:02.350Z,1000.5
2023-03-14T00:43:02.310Z,1000.4
2023-03-14T00:44:02.132Z,1000.4
2023-03-14T00:45:02.193Z,1000.3
2023-03-14T00:46:02.010Z,1000.3
2023-03-14T00:47:02.221Z,1000.3
2023-03-14T00:48:02.091Z,1000.2
2023-03-14T00:49:01.961Z,1000.2
2023-03-14T00:50:02.030Z,1000.3
2023-03-14T00:51:01.877Z,1000.3
2023-03-14T00:52:01.846Z,1000.3
2023-03-14T00:53:01.729Z,1000.2
2023-03-14T00:54:02.804Z,1000.3
2023-03-14T00:55:02.694Z,1000.4
2023-03-14T00:56:02.762Z,1000.3
2023-03-14T00:57:02.633Z,1000.2
2023-03-14T00:58:02.693Z,1000.1
2023-03-14T00:59:02.597Z,1000.1
2023-03-14T01:00:02.673Z,1000.1
2023-03-14T01:01:02.489Z,1000.2
2023-03-14T01:02:02.856Z,1000.1
2023-03-14T01:03:02.967Z,1000.1
2023-03-14T01:04:01.736Z,1000.1
2023-03-14T01:05:02.799Z,1000.1
2023-03-14T01:06:02.731Z,1000.1
2023-03-14T01:07:02.825Z,1000.1
2023-03-14T01:08:02.644Z,1000.1
2023-03-14T01:09:02.692Z,1000.1
2023-03-14T01:10:02.615Z,1000.1
2023-03-14T01:11:02.624Z,1000.1
2023-03-14T01:12:02.503Z,1000.2
2023-03-14T01:13:02.540Z,1000.2
2023-03-14T01:14:02.490Z,1000.2
2023-03-14T01:15:02.352Z,1000.3
2023-03-14T01:16:02.572Z,1000.1
2023-03-14T01:17:02.686Z,1000.2
2023-03-14T01:18:02.536Z,1000.1
2023-03-14T01:19:02.599Z,1000
2023-03-14T01:20:02.589Z,999.9
2023-03-14T01:21:02.454Z,999.8
2023-03-14T01:22:02.393Z,999.9
2023-03-14T01:23:02.345Z,999.8
2023-03-14T01:24:02.318Z,999.8
2023-03-14T01:25:02.128Z,999.6
2023-03-14T01:26:02.160Z,999.6
2023-03-14T01:27:02.012Z,999.6
2023-03-14T01:28:02.084Z,999.6
2023-03-14T01:29:01.978Z,999.4
2023-03-14T01:30:01.991Z,999.6
2023-03-14T01:31:01.969Z,999.4
2023-03-14T01:32:01.920Z,999.4
2023-03-14T01:33:01.989Z,999.5
2023-03-14T01:34:01.805Z,999.3
2023-03-14T01:35:01.871Z,999.4
2023-03-14T01:36:03.152Z,999.5
2023-03-14T01:37:02.018Z,999.4
2023-03-14T01:38:02.035Z,999.5
2023-03-14T01:39:01.876Z,999.4
2023-03-14T01:40:01.903Z,999.3
2023-03-14T01:41:01.758Z,999.3
2023-03-14T01:42:02.792Z,999.3
2023-03-14T01:43:02.649Z,999.4
2023-03-14T01:44:02.717Z,999.5
2023-03-14T01:45:02.768Z,999.4
2023-03-14T01:46:02.919Z,999.4
2023-03-14T01:47:01.894Z,999.3
2023-03-14T01:48:01.869Z,999.4
2023-03-14T01:49:02.897Z,999.4
2023-03-14T01:50:02.724Z,999.4
2023-03-14T01:51:02.773Z,999.3
2023-03-14T01:52:02.686Z,999.4
2023-03-14T01:53:02.813Z,999.3
2023-03-14T01:54:02.637Z,999.4
2023-03-14T01:55:02.815Z,999.2
2023-03-14T01:56:02.675Z,999.3
2023-03-14T01:57:02.724Z,999.2
2023-03-14T01:58:02.695Z,999.2
2023-03-14T01:59:02.728Z,999.2
2023-03-14T02:00:02.643Z,999.2
2023-03-14T02:01:02.953Z,999.1
2023-03-14T02:02:02.701Z,999.2
2023-03-14T02:03:02.802Z,999.2
2023-03-14T02:04:02.732Z,999.2
2023-03-14T02:05:02.683Z,999.2
2023-03-14T02:06:02.558Z,999.3
2023-03-14T02:07:02.632Z,999.3
2023-03-14T02:08:02.481Z,999.3
2023-03-14T02:09:02.563Z,999.3
2023-03-14T02:10:02.525Z,999.2
2023-03-14T02:11:02.360Z,999.3
2023-03-14T02:12:02.395Z,999.3
2023-03-14T02:13:02.395Z,999.3
2023-03-14T02:14:02.263Z,999.3
2023-03-14T02:15:02.345Z,999.3
2023-03-14T02:16:02.485Z,999.4
2023-03-14T02:17:02.310Z,999.4
2023-03-14T02:18:02.434Z,999.4
2023-03-14T02:19:02.316Z,999.4
2023-03-14T02:20:02.240Z,999.4
2023-03-14T02:21:02.259Z,999.4
2023-03-14T02:22:02.100Z,999.4
2023-03-14T02:23:02.195Z,999.3
2023-03-14T02:24:02.062Z,999.3
2023-03-14T02:25:02.135Z,999.3
2023-03-14T02:26:01.928Z,999.3
2023-03-14T02:27:02.026Z,999.2
2023-03-14T02:28:01.849Z,999.2
2023-03-14T02:29:02.017Z,999.1
2023-03-14T02:30:01.902Z,999.1
2023-03-14T02:31:01.847Z,999
2023-03-14T02:32:02.024Z,999
2023-03-14T02:33:02.256Z,999
2023-03-14T02:34:02.022Z,998.9
2023-03-14T02:35:02.120Z,998.9
2023-03-14T02:36:02.080Z,998.9
2023-03-14T02:37:01.995Z,998.8
2023-03-14T02:38:01.843Z,998.9
2023-03-14T02:39:01.895Z,998.9
2023-03-14T02:40:01.790Z,998.9
2023-03-14T02:41:01.964Z,998.9
2023-03-14T02:42:01.776Z,999
2023-03-14T02:43:01.863Z,999
2023-03-14T02:44:01.807Z,998.9
2023-03-14T02:45:01.803Z,999
2023-03-14T02:46:02.822Z,999
2023-03-14T02:47:01.721Z,999.1
2023-03-14T02:48:02.808Z,999
2023-03-14T02:49:02.659Z,999.1
2023-03-14T02:50:02.879Z,999.1
2023-03-14T02:51:02.654Z,999.1
2023-03-14T02:52:02.774Z,999.2
2023-03-14T02:53:02.581Z,999.2
2023-03-14T02:54:02.715Z,999.2
2023-03-14T02:55:02.596Z,999.2
2023-03-14T02:56:02.676Z,999.2
2023-03-14T02:57:02.512Z,999.1
2023-03-14T02:58:02.562Z,999.2
2023-03-14T02:59:02.516Z,999.2
2023-03-14T03:00:03.096Z,999.2
2023-03-14T03:01:02.268Z,999.1
2023-03-14T03:02:02.570Z,999.1
2023-03-14T03:03:02.639Z,999.1
2023-03-14T03:04:02.590Z,999
2023-03-14T03:05:02.486Z,999.1
2023-03-14T03:06:02.493Z,999.1
2023-03-14T03:07:02.478Z,999.1
2023-03-14T03:08:02.309Z,999
2023-03-14T03:09:02.427Z,999
2023-03-14T03:10:02.351Z,999
2023-03-14T03:11:02.227Z,999
2023-03-14T03:12:02.291Z,999
2023-03-14T03:13:02.124Z,999
2023-03-14T03:14:02.195Z,999
2023-03-14T03:15:02.077Z,999
2023-03-14T03:16:02.151Z,999
2023-03-14T03:17:02.583Z,999.1
2023-03-14T03:18:02.508Z,999
2023-03-14T03:19:02.393Z,999.1
2023-03-14T03:20:02.441Z,999
2023-03-14T03:21:02.253Z,999.1
2023-03-14T03:22:02.291Z,999.1
2023-03-14T03:23:02.140Z,999.1
2023-03-14T03:24:02.205Z,999.2
2023-03-14T03:25:02.053Z,999.2
2023-03-14T03:26:02.147Z,999.2
2023-03-14T03:27:02.025Z,999.2
2023-03-14T03:28:02.110Z,999.3
2023-03-14T03:29:01.964Z,999.4
2023-03-14T03:30:01.980Z,999.4
2023-03-14T03:31:02.019Z,999.5
2023-03-14T03:32:02.181Z,999.5
2023-03-14T03:33:02.400Z,999.6
2023-03-14T03:34:02.278Z,999.7
2023-03-14T03:35:02.151Z,999.8
2023-03-14T03:36:02.311Z,999.9
2023-03-14T03:37:02.061Z,1000
2023-03-14T03:38:02.151Z,1000
2023-03-14T03:39:01.970Z,1000
2023-03-14T03:40:02.084Z,1000
2023-03-14T03:41:01.880Z,1000
2023-03-14T03:42:01.981Z,1000
2023-03-14T03:43:01.836Z,999.9
2023-03-14T03:44:01.845Z,1000
2023-03-14T03:45:01.768Z,1000
2023-03-14T03:46:01.997Z,1000
2023-03-14T03:47:01.898Z,1000.1
2023-03-14T03:48:01.961Z,1000.1
2023-03-14T03:49:01.837Z,1000
2023-03-14T03:50:02.079Z,999.9
2023-03-14T03:51:01.861Z,999.8
2023-03-14T03:52:01.916Z,999.8
2023-03-14T03:53:01.762Z,999.8
2023-03-14T03:54:01.851Z,999.8
2023-03-14T03:55:02.802Z,999.9
2023-03-14T03:56:02.860Z,999.9
2023-03-14T03:57:02.077Z,999.8
2023-03-14T03:58:01.943Z,999.7
2023-03-14T03:59:01.992Z,999.7
2023-03-14T04:00:03.092Z,999.7
2023-03-14T04:01:02.070Z,999.6
2023-03-14T04:02:02.111Z,999.6
2023-03-14T04:03:02.545Z,999.7
2023-03-14T04:04:03.004Z,999.6
2023-03-14T04:05:02.364Z,999.6
2023-03-14T04:06:02.661Z,999.6
2023-03-14T04:07:02.574Z,999.6
2023-03-14T04:08:02.423Z,999.6
2023-03-14T04:09:02.488Z,999.6
2023-03-14T04:10:02.482Z,999.6
2023-03-14T04:11:02.260Z,999.5
2023-03-14T04:12:02.265Z,999.5
2023-03-14T04:13:02.145Z,999.5
2023-03-14T04:14:02.320Z,999.5
2023-03-14T04:15:02.132Z,999.5
2023-03-14T04:16:02.342Z,999.5
2023-03-14T04:17:02.411Z,999.5
2023-03-14T04:18:02.306Z,999.5
2023-03-14T04:19:02.355Z,999.5
2023-03-14T04:20:02.327Z,999.5
2023-03-14T04:21:02.166Z,999.5
2023-03-14T04:22:02.212Z,999.5
2023-03-14T04:23:02.090Z,999.4
2023-03-14T04:24:02.163Z,999.4
2023-03-14T04:25:02.331Z,999.5
2023-03-14T04:26:02.089Z,999.4
2023-03-14T04:27:02.230Z,999.3
2023-03-14T04:28:02.088Z,999.3
2023-03-14T04:29:02.126Z,999.2
2023-03-14T04:30:02.010Z,999.2
2023-03-14T04:31:02.088Z,999.2
2023-03-14T04:32:02.113Z,999.2
2023-03-14T04:33:02.427Z,999.2
2023-03-14T04:34:02.324Z,999.1
2023-03-14T04:35:02.179Z,999.2
2023-03-14T04:36:02.316Z,999.2
2023-03-14T04:37:02.108Z,999.4
2023-03-14T04:38:02.232Z,999.2
2023-03-14T04:39:02.018Z,999.3
2023-03-14T04:40:02.117Z,999.2
2023-03-14T04:41:01.931Z,999.2
2023-03-14T04:42:01.970Z,999.2
2023-03-14T04:43:01.833Z,999.2
2023-03-14T04:44:01.874Z,999.1
2023-03-14T04:45:01.759Z,999.1
2023-03-14T04:46:01.835Z,999.1
2023-03-14T04:47:03.068Z,999
2023-03-14T04:48:01.900Z,999.1
2023-03-14T04:49:01.943Z,999.1
2023-03-14T04:50:01.926Z,999
2023-03-14T04:51:01.919Z,998.9
2023-03-14T04:52:01.778Z,998.9
2023-03-14T04:53:01.821Z,998.8
2023-03-14T04:54:01.739Z,998.8
2023-03-14T04:55:02.854Z,998.9
2023-03-14T04:56:02.769Z,998.9
2023-03-14T04:57:02.781Z,998.9
2023-03-14T04:58:02.657Z,998.8
2023-03-14T04:59:02.711Z,998.9
2023-03-14T05:00:02.600Z,998.9
2023-03-14T05:01:02.669Z,998.8
2023-03-14T05:02:03.003Z,998.8
2023-03-14T05:03:02.078Z,998.7
2023-03-14T05:04:01.863Z,998.8
2023-03-14T05:05:01.910Z,998.8
2023-03-14T05:06:01.787Z,998.8
2023-03-14T05:07:01.806Z,998.7
2023-03-14T05:08:02.794Z,998.8
2023-03-14T05:09:02.632Z,998.6
2023-03-14T05:10:02.766Z,998.7
2023-03-14T05:11:02.578Z,998.5
2023-03-14T05:12:02.716Z,998.5
2023-03-14T05:13:02.552Z,998.5
2023-03-14T05:14:02.634Z,998.6
2023-03-14T05:15:02.455Z,998.5
2023-03-14T05:16:02.715Z,998.5
2023-03-14T05:17:01.863Z,998.5
2023-03-14T05:18:01.976Z,998.5
2023-03-14T05:19:01.777Z,998.5
2023-03-14T05:20:01.778Z,998.5
2023-03-14T05:21:02.791Z,998.5
2023-03-14T05:22:02.654Z,998.5
2023-03-14T05:23:02.688Z,998.5
2023-03-14T05:24:02.522Z,998.5
2023-03-14T05:25:02.612Z,998.4
2023-03-14T05:26:02.496Z,998.4
2023-03-14T05:27:02.576Z,998.4
2023-03-14T05:28:02.518Z,998.4
2023-03-14T05:29:02.379Z,998.5
2023-03-14T05:30:02.452Z,998.3
2023-03-14T05:31:02.366Z,998.3
2023-03-14T05:32:02.451Z,998.3
2023-03-14T05:33:02.716Z,998.3
2023-03-14T05:34:02.619Z,998.4
2023-03-14T05:35:02.443Z,998.4
2023-03-14T05:36:02.616Z,998.4
2023-03-14T05:37:02.860Z,998.4
2023-03-14T05:38:02.610Z,998.5
2023-03-14T05:39:02.703Z,998.4
2023-03-14T05:40:02.600Z,998.5
2023-03-14T05:41:02.665Z,998.4
2023-03-14T05:42:02.161Z,998.4
2023-03-14T05:43:02.222Z,998.5
2023-03-14T05:44:02.080Z,998.5
2023-03-14T05:45:02.115Z,998.5
2023-03-14T05:46:02.286Z,998.4
2023-03-14T05:47:02.128Z,998.5
2023-03-14T05:48:02.317Z,998.5
2023-03-14T05:49:02.288Z,998.5
2023-03-14T05:50:02.245Z,998.5
2023-03-14T05:51:02.160Z,998.6
2023-03-14T05:52:02.040Z,998.6
2023-03-14T05:53:02.154Z,998.5
2023-03-14T05:54:01.977Z,998.4
2023-03-14T05:55:02.103Z,998.5
2023-03-14T05:56:02.077Z,998.4
2023-03-14T05:57:02.010Z,998.3
2023-03-14T05:58:01.886Z,998.4
2023-03-14T05:59:01.904Z,998.3
2023-03-14T06:00:02.282Z,998.4
2023-03-14T06:01:02.070Z,998.3
2023-03-14T06:02:02.959Z,998.2
2023-03-14T06:03:02.000Z,998.3
2023-03-14T06:04:01.756Z,998.2
2023-03-14T06:05:01.839Z,998.2
2023-03-14T06:06:02.781Z,998.2
2023-03-14T06:07:02.695Z,998.2
2023-03-14T06:08:02.690Z,998.2
2023-03-14T06:09:02.577Z,998.2
2023-03-14T06:10:02.626Z,998.2
2023-03-14T06:11:02.505Z,998.1
2023-03-14T06:12:02.557Z,998.1
2023-03-14T06:13:02.555Z,998.3
2023-03-14T06:14:02.377Z,998.2
2023-03-14T06:15:02.373Z,998.2
2023-03-14T06:16:02.334Z,998.2
2023-03-14T06:17:02.383Z,998.2
2023-03-14T06:18:02.441Z,998.2
2023-03-14T06:19:02.395Z,998.1
2023-03-14T06:20:02.306Z,998.2
2023-03-14T06:21:02.377Z,998.2
2023-03-14T06:22:02.320Z,998.1
2023-03-14T06:23:02.167Z,998.1
2023-03-14T06:24:02.187Z,998.1
2023-03-14T06:25:02.118Z,998.1
2023-03-14T06:26:02.219Z,998.1
2023-03-14T06:27:02.030Z,998.1
2023-03-14T06:28:02.178Z,998
2023-03-14T06:29:02.099Z,998
2023-03-14T06:30:02.292Z,998
2023-03-14T06:31:02.419Z,998
2023-03-14T06:32:02.269Z,998
2023-03-14T06:33:02.562Z,998
2023-03-14T06:34:02.490Z,998
2023-03-14T06:35:02.413Z,998
2023-03-14T06:36:02.541Z,997.9
2023-03-14T06:37:02.452Z,997.9
2023-03-14T06:38:02.298Z,998
2023-03-14T06:39:02.327Z,997.9
2023-03-14T06:40:02.305Z,997.8
2023-03-14T06:41:02.252Z,997.8
2023-03-14T06:42:02.237Z,997.8
2023-03-14T06:43:02.067Z,997.8
2023-03-14T06:44:02.134Z,997.7
2023-03-14T06:45:02.002Z,997.8
2023-03-14T06:46:02.393Z,997.7
2023-03-14T06:47:02.391Z,997.8
2023-03-14T06:48:02.225Z,997.8
2023-03-14T06:49:02.309Z,997.8
2023-03-14T06:50:02.299Z,997.8
2023-03-14T06:51:02.199Z,997.7
2023-03-14T06:52:02.227Z,997.8
2023-03-14T06:53:02.405Z,997.7
2023-03-14T06:54:02.189Z,997.7
2023-03-14T06:55:02.270Z,997.7
2023-03-14T06:56:02.103Z,997.7
2023-03-14T06:57:02.249Z,997.7
2023-03-14T06:58:02.071Z,997.8
2023-03-14T06:59:02.133Z,997.8
2023-03-14T07:00:03.605Z,997.7
2023-03-14T07:01:02.555Z,997.7
2023-03-14T07:02:02.097Z,997.6
2023-03-14T07:03:02.209Z,997.7
2023-03-14T07:04:02.172Z,997.7
2023-03-14T07:05:02.105Z,997.7
2023-03-14T07:06:01.962Z,997.6
2023-03-14T07:07:02.081Z,997.7
2023-03-14T07:08:01.926Z,997.8
2023-03-14T07:09:04.537Z,997.9
2023-03-14T07:10:02.404Z,997.9
2023-03-14T07:11:02.264Z,997.9
2023-03-14T07:12:02.314Z,997.8
2023-03-14T07:13:02.291Z,997.9
2023-03-14T07:14:02.149Z,997.8
2023-03-14T07:15:19.984Z,997.8
2023-03-14T07:16:01.990Z,997.9
2023-03-14T07:17:02.505Z,997.8
2023-03-14T07:18:02.480Z,997.8
2023-03-14T07:19:02.419Z,997.8
2023-03-14T07:20:02.440Z,998
2023-03-14T07:21:02.375Z,998
2023-03-14T07:22:02.268Z,998
2023-03-14T07:23:02.171Z,998
2023-03-14T07:24:02.238Z,998
2023-03-14T07:25:02.131Z,998.1
2023-03-14T07:26:02.212Z,998
2023-03-14T07:27:02.115Z,997.9
2023-03-14T07:28:02.130Z,997.9
2023-03-14T07:29:02.003Z,997.9
2023-03-14T07:30:02.076Z,998
2023-03-14T07:31:06.155Z,998
2023-03-14T07:32:02.009Z,998.1
2023-03-14T07:33:02.275Z,998.1
2023-03-14T07:34:02.125Z,998.3
2023-03-14T07:35:02.424Z,998.4
2023-03-14T07:36:02.807Z,998.4
2023-03-14T07:37:02.621Z,998.2
2023-03-14T07:38:02.670Z,998.2
2023-03-14T07:39:02.521Z,998.3
2023-03-14T07:40:02.609Z,998.1
2023-03-14T07:41:02.550Z,998.3
2023-03-14T07:42:02.398Z,998.2
2023-03-14T07:43:02.486Z,998.2
2023-03-14T07:44:02.433Z,998.2
2023-03-14T07:45:02.285Z,998.3
2023-03-14T07:46:02.341Z,998.3
2023-03-14T07:47:03.234Z,998.2
2023-03-14T07:48:01.999Z,998.1
2023-03-14T07:49:02.034Z,998.1
2023-03-14T07:50:01.994Z,998.3
2023-03-14T07:51:01.977Z,998.2
2023-03-14T07:52:01.813Z,998.2
2023-03-14T07:53:01.842Z,998.2
2023-03-14T07:54:02.739Z,998.3
2023-03-14T07:55:02.716Z,998.2
2023-03-14T07:56:02.761Z,998.5
2023-03-14T07:57:02.655Z,998.3
2023-03-14T07:58:02.668Z,998.2
2023-03-14T07:59:02.559Z,998.3
2023-03-14T08:00:04.065Z,998.2
2023-03-14T08:01:01.862Z,998.2
2023-03-14T08:02:01.751Z,998.3
2023-03-14T08:03:02.853Z,998.2
2023-03-14T08:04:02.948Z,998.2
2023-03-14T08:05:01.837Z,998.2
2023-03-14T08:06:02.836Z,998.1
2023-03-14T08:07:02.673Z,998.1
2023-03-14T08:08:02.770Z,998.2
2023-03-14T08:09:02.613Z,998.3
2023-03-14T08:10:02.640Z,998.3
2023-03-14T08:11:02.598Z,998.3
2023-03-14T08:12:02.664Z,998.3
2023-03-14T08:13:02.524Z,998.4
2023-03-14T08:14:02.755Z,998.5
2023-03-14T08:15:02.638Z,998.5
2023-03-14T08:16:02.628Z,998.4
2023-03-14T08:17:01.971Z,998.3
2023-03-14T08:18:02.061Z,998.2
2023-03-14T08:19:01.922Z,998.3
2023-03-14T08:20:01.995Z,998.4
2023-03-14T08:21:01.809Z,998.3
2023-03-14T08:22:03.037Z,998.4
2023-03-14T08:23:01.798Z,998.5
2023-03-14T08:24:01.969Z,998.4
2023-03-14T08:25:01.736Z,998.6
2023-03-14T08:26:01.856Z,998.5
2023-03-14T08:27:02.793Z,998.5
2023-03-14T08:28:02.697Z,998.5
2023-03-14T08:29:02.732Z,998.5
2023-03-14T08:30:02.709Z,998.5
2023-03-14T08:31:03.526Z,998.4
2023-03-14T08:32:02.208Z,998.4
2023-03-14T08:33:02.248Z,998.6
2023-03-14T08:34:02.093Z,998.4
2023-03-14T08:35:02.065Z,998.3
2023-03-14T08:36:02.336Z,998.3
2023-03-14T08:37:23.704Z,998.2
2023-03-14T08:38:02.451Z,998.3
2023-03-14T08:39:02.758Z,998.3
2023-03-14T08:40:02.580Z,998.3
2023-03-14T08:41:02.613Z,998.3
2023-03-14T08:42:02.471Z,998.3
2023-03-14T08:43:02.586Z,998.3
2023-03-14T08:44:02.671Z,998.2
2023-03-14T08:45:02.478Z,998.3
2023-03-14T08:46:02.483Z,998.3
2023-03-14T08:47:02.022Z,998.3
2023-03-14T08:48:01.869Z,998.3
2023-03-14T08:49:01.755Z,998.4
2023-03-14T08:50:02.771Z,998.3
2023-03-14T08:51:02.684Z,998.4
2023-03-14T08:52:02.776Z,998.4
2023-03-14T08:53:02.824Z,998.3
2023-03-14T08:54:02.711Z,998.4
2023-03-14T08:55:02.580Z,998.3
2023-03-14T08:56:02.630Z,998.3
2023-03-14T08:57:02.532Z,998.3
2023-03-14T08:58:02.551Z,998.4
2023-03-14T08:59:02.530Z,998.3
2023-03-14T09:00:02.353Z,998.4
2023-03-14T09:01:02.618Z,998.5
2023-03-14T09:02:02.317Z,998.4
2023-03-14T09:03:02.313Z,998.4
2023-03-14T09:04:02.345Z,998.5
2023-03-14T09:05:02.133Z,998.6
2023-03-14T09:06:02.212Z,998.5
2023-03-14T09:07:02.082Z,998.4
2023-03-14T09:08:02.161Z,998.5
2023-03-14T09:09:02.083Z,998.6
2023-03-14T09:10:02.009Z,998.6
2023-03-14T09:11:01.830Z,998.5
2023-03-14T09:12:01.875Z,998.6
2023-03-14T09:13:02.818Z,998.6
2023-03-14T09:14:02.657Z,998.5
2023-03-14T09:15:02.779Z,998.6
2023-03-14T09:16:02.704Z,998.6
2023-03-14T09:17:01.763Z,998.7
2023-03-14T09:18:02.857Z,998.7
2023-03-14T09:19:02.727Z,998.6
2023-03-14T09:20:02.786Z,998.7
2023-03-14T09:21:02.666Z,998.7
2023-03-14T09:22:02.663Z,998.7
2023-03-14T09:23:02.565Z,998.7
2023-03-14T09:24:02.621Z,998.7
2023-03-14T09:25:02.530Z,998.7
2023-03-14T09:26:02.514Z,998.6
2023-03-14T09:27:02.514Z,998.7
2023-03-14T09:28:02.391Z,998.7
2023-03-14T09:29:02.379Z,998.8
2023-03-14T09:30:02.503Z,998.8
2023-03-14T09:31:02.292Z,998.8
2023-03-14T09:32:02.605Z,998.8
2023-03-14T09:33:02.641Z,998.8
2023-03-14T09:34:02.606Z,998.8
2023-03-14T09:35:02.381Z,998.7
2023-03-14T09:36:02.432Z,998.7
2023-03-14T09:37:02.510Z,998.6
2023-03-14T09:38:02.285Z,998.6
2023-03-14T09:39:02.345Z,998.5
2023-03-14T09:40:02.264Z,998.6
2023-03-14T09:41:02.059Z,998.7
2023-03-14T09:42:02.038Z,998.6
2023-03-14T09:43:01.943Z,998.5
2023-03-14T09:44:02.025Z,998.6
2023-03-14T09:45:01.887Z,998.6
2023-03-14T09:46:02.045Z,998.6
2023-03-14T09:47:02.144Z,998.7
2023-03-14T09:48:02.144Z,998.6
2023-03-14T09:49:01.952Z,998.6
2023-03-14T09:50:02.005Z,998.7
2023-03-14T09:51:01.859Z,998.7
2023-03-14T09:52:04.814Z,998.8
2023-03-14T09:53:02.696Z,998.7
2023-03-14T09:54:02.548Z,998.8
2023-03-14T09:55:02.581Z,998.7
2023-03-14T09:56:02.450Z,998.7
2023-03-14T09:57:02.490Z,998.8
2023-03-14T09:58:02.428Z,998.7
2023-03-14T09:59:02.383Z,998.8
2023-03-14T10:00:02.922Z,998.9
2023-03-14T10:01:05.039Z,998.9
2023-03-14T10:02:02.439Z,998.7
2023-03-14T10:03:02.434Z,998.8
2023-03-14T10:04:02.483Z,998.7
2023-03-14T10:05:07.419Z,998.8
2023-03-14T10:06:02.188Z,998.9
2023-03-14T10:07:05.337Z,999
2023-03-14T10:08:02.097Z,999
2023-03-14T10:09:02.147Z,999
2023-03-14T10:10:02.213Z,998.9
2023-03-14T10:11:01.953Z,999
2023-03-14T10:12:02.409Z,998.9
2023-03-14T10:13:02.549Z,999
2023-03-14T10:14:02.376Z,998.9
2023-03-14T10:15:02.458Z,998.9
2023-03-14T10:16:02.399Z,998.9
2023-03-14T10:17:02.651Z,998.9
2023-03-14T10:18:02.503Z,998.9
2023-03-14T10:19:02.486Z,999
2023-03-14T10:20:02.367Z,999
2023-03-14T10:21:02.386Z,999.1
2023-03-14T10:22:02.278Z,999.2
2023-03-14T10:23:02.180Z,999.1
2023-03-14T10:24:02.204Z,999.1
2023-03-14T10:25:01.997Z,999.1
2023-03-14T10:26:01.995Z,999.1
2023-03-14T10:27:01.904Z,999.1
2023-03-14T10:28:01.908Z,999
2023-03-14T10:29:01.777Z,999
2023-03-14T10:30:01.807Z,999.1
2023-03-14T10:31:02.986Z,999
2023-03-14T10:32:02.106Z,999
2023-03-14T10:33:02.327Z,999
2023-03-14T10:34:02.123Z,999
2023-03-14T10:35:02.311Z,999
2023-03-14T10:36:02.485Z,999
2023-03-14T10:37:02.250Z,999
2023-03-14T10:38:02.324Z,999
2023-03-14T10:39:02.250Z,999
2023-03-14T10:40:02.080Z,999.1
2023-03-14T10:41:02.044Z,999
2023-03-14T10:42:01.932Z,999
2023-03-14T10:43:01.989Z,999
2023-03-14T10:44:01.861Z,998.9
2023-03-14T10:45:01.878Z,999
2023-03-14T10:46:01.839Z,999
2023-03-14T10:47:01.953Z,999
2023-03-14T10:48:05.235Z,999
2023-03-14T10:49:02.039Z,998.9
2023-03-14T10:50:02.101Z,999
2023-03-14T10:51:01.957Z,998.9
2023-03-14T10:52:02.034Z,998.9
2023-03-14T10:53:04.109Z,998.9
2023-03-14T10:54:01.862Z,998.9
2023-03-14T10:55:01.851Z,999.1
2023-03-14T10:56:01.984Z,999
2023-03-14T10:57:02.009Z,998.9
2023-03-14T10:58:01.783Z,999
2023-03-14T10:59:01.806Z,998.9
2023-03-14T11:00:02.816Z,998.9
2023-03-14T11:01:01.748Z,998.9
2023-03-14T11:02:01.963Z,999
2023-03-14T11:03:01.977Z,999.1
2023-03-14T11:04:01.811Z,999
2023-03-14T11:05:02.106Z,999
2023-03-14T11:06:01.928Z,999
2023-03-14T11:07:01.987Z,999
2023-03-14T11:08:01.856Z,999.1
2023-03-14T11:09:01.923Z,998.9
2023-03-14T11:10:01.741Z,999
2023-03-14T11:11:02.815Z,999
2023-03-14T11:12:02.729Z,999
2023-03-14T11:13:02.723Z,999
2023-03-14T11:14:02.634Z,998.9
2023-03-14T11:15:02.719Z,998.9
2023-03-14T11:16:02.681Z,998.9
2023-03-14T11:17:01.738Z,998.9
2023-03-14T11:18:02.759Z,999
2023-03-14T11:19:02.671Z,998.9
2023-03-14T11:20:02.741Z,998.9
2023-03-14T11:21:02.608Z,998.9
2023-03-14T11:22:02.636Z,998.9
2023-03-14T11:23:02.537Z,998.9
2023-03-14T11:24:02.751Z,999
2023-03-14T11:25:02.600Z,999
2023-03-14T11:26:02.451Z,999.1
2023-03-14T11:27:02.505Z,999
2023-03-14T11:28:02.433Z,999.1
2023-03-14T11:29:02.312Z,999
2023-03-14T11:30:02.373Z,999
2023-03-14T11:31:02.413Z,999
2023-03-14T11:32:02.084Z,999
2023-03-14T11:33:02.543Z,998.9
2023-03-14T11:34:02.465Z,998.9
2023-03-14T11:35:02.350Z,998.9
2023-03-14T11:36:02.484Z,998.9
2023-03-14T11:37:02.375Z,998.9
2023-03-14T11:38:02.309Z,998.9
2023-03-14T11:39:02.240Z,998.9
2023-03-14T11:40:02.082Z,998.9
2023-03-14T11:41:02.121Z,998.9
2023-03-14T11:42:05.836Z,998.9
2023-03-14T11:43:02.947Z,998.9
2023-03-14T11:44:02.772Z,998.9
2023-03-14T11:45:02.771Z,999
2023-03-14T11:46:02.959Z,998.9
2023-03-14T11:47:02.283Z,998.9
2023-03-14T11:48:02.079Z,998.9
2023-03-14T11:49:01.969Z,998.9
2023-03-14T11:50:02.104Z,998.9
2023-03-14T11:51:01.878Z,999
2023-03-14T11:52:01.902Z,999
2023-03-14T11:53:02.109Z,999.1
2023-03-14T11:54:01.942Z,999.1
2023-03-14T11:55:01.840Z,999
2023-03-14T11:56:02.781Z,998.9
2023-03-14T11:57:02.656Z,998.9
2023-03-14T11:58:02.634Z,999
2023-03-14T11:59:03.972Z,998.9
2023-03-14T12:00:03.090Z,998.9
2023-03-14T12:01:02.006Z,998.8
2023-03-14T12:02:02.662Z,998.9
2023-03-14T12:03:02.575Z,998.9
2023-03-14T12:04:02.581Z,998.9
2023-03-14T12:05:02.918Z,998.8
2023-03-14T12:06:02.741Z,998.8
2023-03-14T12:07:02.658Z,998.8
2023-03-14T12:08:02.684Z,998.7
2023-03-14T12:09:02.577Z,998.7
2023-03-14T12:10:02.583Z,998.8
2023-03-14T12:11:02.436Z,998.8
2023-03-14T12:12:02.497Z,998.8
2023-03-14T12:13:02.474Z,998.8
2023-03-14T12:14:02.310Z,998.7
2023-03-14T12:15:02.387Z,998.8
2023-03-14T12:16:02.526Z,998.7
2023-03-14T12:17:02.283Z,998.8
2023-03-14T12:18:02.484Z,998.9
2023-03-14T12:19:02.351Z,998.8
2023-03-14T12:20:02.236Z,998.9
2023-03-14T12:21:02.443Z,998.8
2023-03-14T12:22:02.303Z,998.8
2023-03-14T12:23:02.392Z,998.8
2023-03-14T12:24:02.498Z,998.8
2023-03-14T12:25:02.639Z,998.8
2023-03-14T12:26:02.552Z,998.9
2023-03-14T12:27:02.484Z,998.8
2023-03-14T12:28:02.459Z,998.9
2023-03-14T12:29:02.319Z,998.8
2023-03-14T12:30:05.186Z,998.8
2023-03-14T12:31:01.975Z,998.8
2023-03-14T12:32:02.692Z,998.8
2023-03-14T12:33:02.689Z,998.8
2023-03-14T12:34:02.541Z,998.8
2023-03-14T12:35:02.391Z,998.7
2023-03-14T12:36:02.808Z,998.8
2023-03-14T12:37:02.831Z,998.8
2023-03-14T12:38:02.620Z,998.8
2023-03-14T12:39:03.524Z,998.8
2023-03-14T12:40:02.299Z,998.9
2023-03-14T12:41:02.801Z,998.8
2023-03-14T12:42:02.552Z,998.8
2023-03-14T12:43:02.790Z,998.8
2023-03-14T12:44:02.581Z,998.8
2023-03-14T12:45:02.659Z,998.7
2023-03-14T12:46:02.631Z,998.7
2023-03-14T12:47:01.817Z,998.7
2023-03-14T12:48:01.835Z,998.7
2023-03-14T12:49:01.794Z,998.7
2023-03-14T12:50:03.077Z,998.7
2023-03-14T12:51:01.890Z,998.6
2023-03-14T12:52:01.906Z,998.5
2023-03-14T12:53:01.815Z,998.6
2023-03-14T12:54:01.914Z,998.6
2023-03-14T12:55:01.775Z,998.6
2023-03-14T12:56:02.768Z,998.6